Time;durP1;ratioP1;P1;durP2;ratioP2;P2;SDS_P1;SDS_P2;PMS_P1;PMS_P2;Temp;Humidity;BMP_temperature;BMP_pressure;BME280_temperature;BME280_humidity;BME280_pressure;Samples;Min_cycle;Max_cycle;Signal;HPM_P1;HPM_P2
2021/08/25 00:02:28;;;;;;;99.05;41.08;;;;;;;15.82;72.90;100610.80;1769262;81;21213;-58
2021/08/25 00:05:35;;;;;;;105.07;41.65;;;;;;;15.79;72.93;100612.05;1769353;79;21303;-58
2021/08/25 00:08:40;;;;;;;109.52;35.45;;;;;;;15.77;72.92;100613.31;1769232;79;21208;-58
2021/08/25 00:11:46;;;;;;;103.00;36.90;;;;;;;15.75;72.92;100612.14;1737498;82;21394;-58
2021/08/25 00:14:51;;;;;;;119.20;40.05;;;;;;;15.71;73.05;100609.48;1737568;81;21340;-58
2021/08/25 00:17:57;;;;;;;93.60;29.42;;;;;;;15.68;73.19;100609.86;1737809;81;21276;-58
2021/08/25 00:21:02;;;;;;;99.75;34.70;;;;;;;15.66;73.14;100608.37;1738376;81;21805;-57
2021/08/25 00:24:08;;;;;;;99.50;32.60;;;;;;;15.64;73.28;100608.57;1738226;81;21372;-57
2021/08/25 00:27:16;;;;;;;84.65;25.72;;;;;;;15.63;73.51;100607.39;1743771;81;21241;-57
2021/08/25 00:30:21;;;;;;;84.85;23.35;;;;;;;15.61;73.78;100597.94;1741756;80;21339;-57
2021/08/25 00:33:27;;;;;;;69.60;20.37;;;;;;;15.61;73.89;100602.59;1738283;81;21189;-57
2021/08/25 00:36:32;;;;;;;85.62;27.27;;;;;;;15.61;74.04;100600.70;1738589;81;21315;-58
2021/08/25 00:39:38;;;;;;;99.52;38.45;;;;;;;15.60;74.00;100587.94;1696435;83;21298;-57
2021/08/25 00:42:45;;;;;;;101.90;39.90;;;;;;;15.61;74.09;100588.28;1697351;83;21308;-58
2021/08/25 00:45:52;;;;;;;99.07;35.68;;;;;;;15.63;74.10;100595.84;1737405;82;21849;-58
2021/08/25 00:48:59;;;;;;;112.72;45.25;;;;;;;15.65;73.99;100601.16;1737450;81;21386;-57
2021/08/25 00:52:04;;;;;;;140.32;49.83;;;;;;;15.65;73.65;100588.19;1737667;82;21406;-57
2021/08/25 00:55:13;;;;;;;195.35;58.30;;;;;;;15.64;73.44;100581.48;1737494;81;21228;-58
2021/08/25 00:58:17;;;;;;;226.18;66.07;;;;;;;15.61;73.54;100583.28;1737477;81;21372;-57
2021/08/25 01:01:42;;;;;;;180.42;50.58;;;;;;;15.60;73.40;100581.03;1737329;82;21339;-57
2021/08/25 01:05:00;;;;;;;185.90;44.67;;;;;;;15.54;73.42;100577.72;1737494;81;21375;-58
2021/08/25 01:08:06;;;;;;;160.85;42.30;;;;;;;15.51;73.36;100576.75;1737588;82;21757;-58
2021/08/25 01:11:18;;;;;;;123.95;32.20;;;;;;;15.47;73.47;100585.64;1737389;82;21912;-58
2021/08/25 01:14:25;;;;;;;82.00;22.97;;;;;;;15.46;73.59;100577.05;1737620;81;21367;-57
2021/08/25 01:17:31;;;;;;;107.63;27.95;;;;;;;15.43;73.49;100567.80;1737371;82;21320;-57
2021/08/25 01:20:38;;;;;;;110.10;27.82;;;;;;;15.43;73.64;100566.42;1737568;82;21359;-58
2021/08/25 01:23:50;;;;;;;101.47;27.02;;;;;;;15.46;73.77;100568.77;1737578;81;21718;-56
2021/08/25 01:27:00;;;;;;;89.97;16.75;;;;;;;15.45;73.81;100573.42;1738348;81;21331;-57
2021/08/25 01:30:06;;;;;;;113.17;27.95;;;;;;;15.45;73.81;100562.91;1744827;81;21398;-56
2021/08/25 01:33:12;;;;;;;77.58;16.15;;;;;;;15.45;74.01;100563.77;1756969;80;21362;-58
2021/08/25 01:36:24;;;;;;;80.60;17.67;;;;;;;15.49;73.75;100551.26;1748205;82;21176;-57
2021/08/25 01:39:31;;;;;;;59.35;13.75;;;;;;;15.52;73.52;100555.02;1756068;80;21402;-57
2021/08/25 01:42:36;;;;;;;66.02;14.33;;;;;;;15.55;73.43;100554.61;1765362;81;21336;-57
2021/08/25 01:45:41;;;;;;;52.73;13.22;;;;;;;15.52;72.64;100545.36;1768699;80;21217;-57
2021/08/25 01:48:47;;;;;;;41.88;13.30;;;;;;;15.49;72.82;100541.59;1751057;79;21586;-57
2021/08/25 01:51:57;;;;;;;53.20;12.28;;;;;;;15.46;72.15;100539.80;1769290;81;21343;-58
2021/08/25 01:55:02;;;;;;;45.08;12.05;;;;;;;15.41;72.35;100541.80;1768971;79;21474;-58
2021/08/25 01:58:07;;;;;;;44.50;13.38;;;;;;;15.43;72.40;100538.83;1769581;80;21318;-58
2021/08/25 02:01:12;;;;;;;55.03;14.10;;;;;;;15.43;72.52;100534.14;1769745;80;21853;-58
2021/08/25 02:04:17;;;;;;;59.08;14.95;;;;;;;15.39;72.38;100531.48;1770310;79;21355;-58
2021/08/25 02:07:23;;;;;;;74.15;16.37;;;;;;;15.39;72.56;100527.34;1768833;81;21197;-57
2021/08/25 02:10:30;;;;;;;108.03;19.75;;;;;;;15.35;72.64;100528.75;1740144;80;21221;-58
2021/08/25 02:13:35;;;;;;;134.10;22.70;;;;;;;15.32;72.66;100536.61;1737670;81;21209;-57
2021/08/25 02:16:41;;;;;;;127.32;24.18;;;;;;;15.27;72.74;100528.91;1737408;82;21908;-56
2021/08/25 02:19:49;;;;;;;123.60;23.52;;;;;;;15.22;72.85;100534.73;1740283;81;21359;-57
2021/08/25 02:22:55;;;;;;;148.10;23.80;;;;;;;15.17;72.81;100531.72;1737591;82;21336;-56
2021/08/25 02:26:00;;;;;;;133.00;24.05;;;;;;;15.10;72.71;100533.56;1737429;82;21178;-56
2021/08/25 02:29:07;;;;;;;149.12;24.20;;;;;;;15.03;72.64;100528.03;1737837;81;21229;-57
2021/08/25 02:32:13;;;;;;;135.37;23.77;;;;;;;15.02;72.80;100533.20;1737984;80;21861;-57
2021/08/25 02:35:18;;;;;;;142.60;22.95;;;;;;;15.04;73.19;100533.86;1742034;81;21347;-57
2021/08/25 02:38:23;;;;;;;140.70;22.95;;;;;;;15.11;73.38;100536.67;1738350;81;21343;-58
2021/08/25 02:41:29;;;;;;;136.25;23.07;;;;;;;15.15;73.22;100537.44;1737780;82;21686;-57
2021/08/25 02:44:36;;;;;;;136.52;23.87;;;;;;;15.19;73.24;100542.03;1737583;81;21816;-56
2021/08/25 02:47:42;;;;;;;152.87;20.82;;;;;;;15.20;72.90;100539.07;1740191;81;21265;-59
2021/08/25 02:50:48;;;;;;;124.05;21.97;;;;;;;15.20;72.69;100543.72;1737323;82;21236;-58
2021/08/25 02:53:53;;;;;;;133.30;21.60;;;;;;;15.18;72.64;100541.17;1737133;81;21355;-58
2021/08/25 02:56:58;;;;;;;88.07;16.25;;;;;;;15.18;72.64;100532.03;1737044;82;21323;-59
2021/08/25 03:00:03;;;;;;;76.00;14.93;;;;;;;15.18;72.76;100532.89;1737113;81;21260;-58
2021/08/25 03:03:10;;;;;;;72.75;14.80;;;;;;;15.18;72.58;100532.03;1738889;81;21387;-59
2021/08/25 03:06:17;;;;;;;94.95;16.62;;;;;;;15.16;72.45;100530.86;1737152;82;21366;-58
2021/08/25 03:09:22;;;;;;;96.28;17.55;;;;;;;15.11;72.15;100527.02;1737174;81;21220;-56
2021/08/25 03:12:28;;;;;;;86.53;16.93;;;;;;;15.07;72.22;100526.56;1739815;81;21183;-58
2021/08/25 03:15:34;;;;;;;61.80;15.15;;;;;;;15.06;72.38;100540.03;1737230;81;21201;-58
2021/08/25 03:18:39;;;;;;;56.98;14.65;;;;;;;15.03;72.30;100545.95;1737550;81;21702;-58
2021/08/25 03:21:45;;;;;;;59.00;14.50;;;;;;;15.03;72.13;100544.02;1737623;82;21364;-58
2021/08/25 03:24:51;;;;;;;104.90;17.98;;;;;;;15.00;72.16;100552.70;1737580;81;21213;-58
2021/08/25 03:27:58;;;;;;;167.45;21.70;;;;;;;15.00;72.21;100557.35;1737475;82;21360;-59
2021/08/25 03:31:03;;;;;;;108.75;17.27;;;;;;;15.01;72.16;100560.45;1740158;81;21366;-57
2021/08/25 03:34:09;;;;;;;70.97;14.33;;;;;;;15.02;72.12;100546.98;1739576;81;21221;-56
2021/08/25 03:37:16;;;;;;;61.35;13.30;;;;;;;15.06;72.04;100551.06;1737410;82;21241;-58
2021/08/25 03:40:21;;;;;;;57.80;13.40;;;;;;;15.09;71.82;100553.41;1737318;81;21387;-58
2021/08/25 03:43:26;;;;;;;27.87;9.28;;;;;;;15.11;71.88;100548.53;1737133;81;21379;-57
2021/08/25 03:46:32;;;;;;;31.10;10.68;;;;;;;15.21;71.97;100552.31;1738283;81;21422;-56
2021/08/25 03:49:42;;;;;;;28.67;10.18;;;;;;;15.31;71.53;100556.44;1744523;80;21371;-57
2021/08/25 03:52:47;;;;;;;32.03;9.25;;;;;;;15.41;71.09;100546.45;1740670;81;21244;-57
2021/08/25 03:55:53;;;;;;;25.92;12.00;;;;;;;15.51;70.65;100553.30;1736935;82;21379;-59
2021/08/25 03:58:58;;;;;;;20.90;11.63;;;;;;;15.60;70.59;100545.16;1737800;81;21367;-57
2021/08/25 04:02:03;;;;;;;29.52;13.20;;;;;;;15.70;70.47;100547.55;1740436;81;21212;-57
2021/08/25 04:05:10;;;;;;;28.17;14.00;;;;;;;15.82;70.40;100548.16;1736946;81;21201;-57
2021/08/25 04:08:16;;;;;;;31.20;16.70;;;;;;;15.92;70.07;100551.92;1768247;79;21371;-56
2021/08/25 04:11:25;;;;;;;49.60;14.58;;;;;;;16.02;69.75;100543.56;1776419;79;21367;-56
2021/08/25 04:14:31;;;;;;;46.48;14.93;;;;;;;16.13;69.62;100545.73;1767827;80;21217;-57
2021/08/25 04:17:36;;;;;;;52.90;15.65;;;;;;;16.26;69.24;100540.25;1774516;79;21864;-57
2021/08/25 04:20:42;;;;;;;68.12;16.32;;;;;;;16.36;69.09;100543.44;1768066;80;21917;-56
2021/08/25 04:23:47;;;;;;;97.33;16.93;;;;;;;16.46;68.99;100543.62;1769872;79;21225;-59
2021/08/25 04:26:55;;;;;;;73.97;16.05;;;;;;;16.50;68.84;100543.50;1768025;80;21217;-59
2021/08/25 04:30:00;;;;;;;98.62;17.40;;;;;;;16.57;68.93;100542.44;1767837;80;21371;-58
2021/08/25 04:33:07;;;;;;;104.87;18.15;;;;;;;16.68;68.94;100542.37;1766466;79;21320;-58
2021/08/25 04:36:13;;;;;;;48.48;11.83;;;;;;;16.80;68.72;100530.98;1771484;79;21273;-57
2021/08/25 04:39:18;;;;;;;28.60;10.72;;;;;;;16.93;68.32;100528.23;1766926;79;21387;-58
2021/08/25 04:42:23;;;;;;;22.82;10.38;;;;;;;17.04;67.75;100523.44;1766738;79;21347;-57
2021/08/25 04:45:27;;;;;;;22.07;10.28;;;;;;;17.16;67.10;100524.47;1767003;80;21209;-58
2021/08/25 04:48:27;;;;;;;25.30;10.45;;;;;;;17.28;66.65;100526.36;1775967;79;21209;-57
2021/08/25 04:51:32;;;;;;;20.32;11.20;;;;;;;17.39;66.34;100524.34;1767643;80;21194;-59
2021/08/25 04:54:39;;;;;;;35.25;12.23;;;;;;;17.53;66.16;100530.72;1768208;79;21348;-58
2021/08/25 04:57:45;;;;;;;24.02;11.00;;;;;;;17.63;66.10;100531.13;1765848;80;21367;-58
2021/08/25 05:00:54;;;;;;;30.12;12.07;;;;;;;17.73;65.87;100524.58;1763997;80;21217;-54
2021/08/25 05:04:00;;;;;;;21.25;11.85;;;;;;;17.86;65.54;100524.00;1764413;81;21222;-53
2021/08/25 05:07:08;;;;;;;21.48;11.55;;;;;;;17.99;65.39;100520.32;1766032;80;21699;-54
2021/08/25 05:10:17;;;;;;;27.48;12.53;;;;;;;18.10;65.28;100517.38;1766660;80;21888;-54
2021/08/25 05:13:23;;;;;;;20.12;12.07;;;;;;;18.21;65.06;100512.00;1747164;80;21214;-55
2021/08/25 05:16:28;;;;;;;23.15;13.08;;;;;;;18.34;64.95;100513.31;1762066;79;21209;-55
2021/08/25 05:19:35;;;;;;;24.25;13.03;;;;;;;18.48;64.91;100516.34;1772448;79;21383;-55
2021/08/25 05:22:43;;;;;;;21.73;13.50;;;;;;;18.62;64.95;100504.59;1796983;79;21332;-55
2021/08/25 05:25:52;;;;;;;25.40;13.85;;;;;;;18.76;64.90;100504.80;1768228;79;21201;-54
2021/08/25 05:28:57;;;;;;;20.82;13.75;;;;;;;18.89;64.96;100507.47;1767343;80;21363;-53
2021/08/25 05:32:02;;;;;;;23.25;14.25;;;;;;;19.01;65.08;100502.34;1767714;80;21324;-55
2021/08/25 05:35:08;;;;;;;24.45;14.28;;;;;;;19.15;65.05;100497.53;1776756;79;21393;-53
2021/08/25 05:38:13;;;;;;;19.65;12.13;;;;;;;19.26;65.07;100499.02;1798302;79;21825;-55
2021/08/25 05:41:19;;;;;;;17.05;12.25;;;;;;;19.40;65.15;100494.20;1801669;79;21299;-53
2021/08/25 05:44:26;;;;;;;21.87;12.58;;;;;;;19.54;64.96;100491.58;1801292;79;21193;-53
2021/08/25 05:47:31;;;;;;;21.77;10.75;;;;;;;19.69;64.52;100493.44;1800014;79;21405;-54
2021/08/25 05:50:37;;;;;;;17.95;11.38;;;;;;;19.84;63.97;100495.80;1793742;79;21205;-53
2021/08/25 05:53:43;;;;;;;20.30;11.60;;;;;;;19.97;63.47;100492.32;1740616;81;21360;-54
2021/08/25 05:56:48;;;;;;;23.55;11.78;;;;;;;20.12;62.96;100494.70;1737274;82;21610;-55
2021/08/25 05:59:55;;;;;;;19.05;11.43;;;;;;;20.24;62.74;100495.08;1737339;81;21332;-54
2021/08/25 06:03:01;;;;;;;18.48;11.78;;;;;;;20.38;62.61;100488.77;1765498;81;21255;-54
2021/08/25 06:06:07;;;;;;;18.92;11.10;;;;;;;20.51;62.31;100488.57;1767110;80;21378;-53
2021/08/25 06:09:12;;;;;;;23.25;12.23;;;;;;;20.65;61.87;100485.88;1767654;80;21331;-53
2021/08/25 06:12:18;;;;;;;20.35;12.53;;;;;;;20.77;61.38;100479.81;1769395;79;21198;-54
2021/08/25 06:15:24;;;;;;;17.23;11.70;;;;;;;20.90;61.29;100485.13;1770378;78;21343;-55
2021/08/25 06:18:31;;;;;;;18.67;11.88;;;;;;;21.02;60.93;100481.86;1768956;79;21213;-55
2021/08/25 06:21:35;;;;;;;22.07;12.33;;;;;;;21.14;60.59;100467.39;1771484;79;21329;-54
2021/08/25 06:24:42;;;;;;;20.88;11.88;;;;;;;21.28;60.40;100474.97;1768905;80;21861;-56
2021/08/25 06:27:49;;;;;;;37.85;16.23;;;;;;;21.42;60.05;100467.48;1768445;80;21355;-55
2021/08/25 06:30:57;;;;;;;20.00;12.28;;;;;;;21.57;59.55;100470.63;1768360;80;21197;-54
2021/08/25 06:34:03;;;;;;;22.37;12.33;;;;;;;21.72;59.11;100472.33;1761987;80;21750;-54
2021/08/25 06:37:08;;;;;;;21.65;12.73;;;;;;;21.87;58.57;100481.59;1747661;79;21201;-54
2021/08/25 06:40:15;;;;;;;16.37;11.35;;;;;;;22.02;57.97;100479.97;1751644;80;21363;-54
2021/08/25 06:43:21;;;;;;;17.37;10.72;;;;;;;22.15;57.54;100481.64;1715241;82;21268;-54
2021/08/25 06:46:30;;;;;;;18.55;10.72;;;;;;;22.24;56.58;100478.75;1800583;78;21172;-55
2021/08/25 06:49:36;;;;;;;20.17;11.83;;;;;;;22.33;56.36;100474.98;1788140;80;21899;-55
2021/08/25 06:52:41;;;;;;;15.18;11.33;;;;;;;22.43;56.14;100481.63;1814160;78;21338;-54
2021/08/25 06:55:49;;;;;;;19.65;11.55;;;;;;;22.53;55.64;100479.06;1802869;79;21255;-55
2021/08/25 06:58:55;;;;;;;22.65;11.78;;;;;;;22.64;55.36;100473.11;1807441;79;21772;-54
2021/08/25 07:02:01;;;;;;;18.12;11.35;;;;;;;22.75;55.62;100477.23;1815431;79;21790;-55
2021/08/25 07:05:07;;;;;;;17.95;12.53;;;;;;;22.88;55.18;100484.42;1767607;80;21363;-55
2021/08/25 07:08:11;;;;;;;20.12;11.85;;;;;;;22.98;54.42;100485.42;1758966;81;21876;-55
2021/08/25 07:11:18;;;;;;;20.25;11.45;;;;;;;23.09;53.88;100476.11;1713841;82;21208;-55
2021/08/25 07:14:25;;;;;;;24.95;11.78;;;;;;;23.20;54.03;100480.75;1799133;79;21331;-53
2021/08/25 07:17:31;;;;;;;17.50;10.45;;;;;;;23.32;53.50;100477.91;1793989;79;21181;-55
2021/08/25 07:20:41;;;;;;;17.77;10.72;;;;;;;23.44;52.63;100481.42;1795726;79;21692;-55
2021/08/25 07:23:50;;;;;;;17.35;11.53;;;;;;;23.52;51.80;100476.25;1794226;78;21233;-54
2021/08/25 07:26:55;;;;;;;19.80;11.93;;;;;;;23.63;51.93;100471.64;1782343;79;21173;-54
2021/08/25 07:30:00;;;;;;;16.80;11.22;;;;;;;23.73;51.34;100475.98;1778338;79;21177;-54
2021/08/25 07:33:11;;;;;;;20.10;12.82;;;;;;;23.84;51.05;100468.02;1797398;78;21173;-54
2021/08/25 07:36:15;;;;;;;19.42;12.07;;;;;;;23.97;51.24;100474.66;1797973;80;21339;-53
2021/08/25 07:39:23;;;;;;;19.85;10.93;;;;;;;24.09;51.40;100468.35;1752793;81;21181;-54
2021/08/25 07:42:28;;;;;;;17.02;11.97;;;;;;;24.18;49.90;100465.37;1805312;79;21660;-55
2021/08/25 07:45:36;;;;;;;15.20;9.15;;;;;;;24.27;50.25;100468.02;1780906;79;21583;-55
2021/08/25 07:48:41;;;;;;;14.15;8.20;;;;;;;24.37;48.90;100468.67;1782271;80;21237;-55
2021/08/25 07:51:49;;;;;;;13.32;8.10;;;;;;;24.48;47.75;100473.27;1790232;79;21244;-53
2021/08/25 07:54:59;;;;;;;16.32;7.75;;;;;;;24.57;46.72;100471.67;1756483;80;21581;-53
2021/08/25 07:58:06;;;;;;;10.50;7.83;;;;;;;24.67;46.16;100476.02;1783509;79;21575;-54
2021/08/25 08:01:13;;;;;;;11.85;7.37;;;;;;;24.74;45.90;100471.88;1798053;79;21261;-55
2021/08/25 08:04:22;;;;;;;11.55;7.40;;;;;;;24.84;45.47;100463.58;1797232;79;21248;-55
2021/08/25 08:07:29;;;;;;;14.70;7.58;;;;;;;24.95;44.81;100458.89;1796492;79;21723;-55
2021/08/25 08:10:35;;;;;;;12.13;7.20;;;;;;;25.08;44.26;100466.84;1767480;80;21235;-55
2021/08/25 08:13:44;;;;;;;12.20;6.08;;;;;;;25.23;43.66;100464.72;1724467;81;21173;-55
2021/08/25 08:16:55;;;;;;;9.23;5.55;;;;;;;25.36;41.98;100468.46;1796837;79;21248;-54
2021/08/25 08:19:59;;;;;;;10.23;5.65;;;;;;;25.47;41.33;100464.60;1796293;79;21828;-54
2021/08/25 08:23:06;;;;;;;9.93;6.00;;;;;;;25.56;41.14;100466.63;1796158;79;21184;-54
2021/08/25 08:26:11;;;;;;;11.43;5.83;;;;;;;25.66;41.69;100451.81;1760564;80;21705;-54
2021/08/25 08:29:16;;;;;;;9.38;5.28;;;;;;;25.75;40.66;100459.44;1700353;83;21216;-54
2021/08/25 08:32:21;;;;;;;10.55;5.78;;;;;;;25.84;40.69;100455.56;1745527;81;21256;-55
2021/08/25 08:35:26;;;;;;;10.05;5.50;;;;;;;25.92;40.06;100456.44;1731872;80;21244;-57
2021/08/25 08:38:32;;;;;;;8.13;5.55;;;;;;;25.98;40.35;100459.54;1759390;80;21363;-57
2021/08/25 08:41:38;;;;;;;12.93;6.00;;;;;;;26.06;39.29;100459.05;1752522;81;21833;-57
2021/08/25 08:44:44;;;;;;;8.05;4.95;;;;;;;26.12;39.12;100453.72;1768368;79;21367;-54
2021/08/25 08:47:51;;;;;;;7.92;5.40;;;;;;;26.20;39.60;100448.98;1773176;79;21228;-52
2021/08/25 08:50:56;;;;;;;10.30;5.33;;;;;;;26.32;38.98;100452.40;1777783;80;21186;-54
2021/08/25 08:54:01;;;;;;;7.42;5.22;;;;;;;26.42;38.55;100451.00;1770066;79;21772;-53
2021/08/25 08:57:07;;;;;;;9.23;5.80;;;;;;;26.50;38.38;100454.66;1770701;79;21719;-51
2021/08/25 09:00:14;;;;;;;9.95;5.47;;;;;;;26.57;38.73;100448.23;1735252;81;21385;-52
2021/08/25 09:03:33;;;;;;;7.35;5.17;;;;;;;26.66;38.48;100449.94;1710411;81;21229;-53
2021/08/25 09:06:55;;;;;;;16.62;7.95;;;;;;;26.74;37.57;100450.23;1784850;80;21323;-53
2021/08/25 09:10:04;;;;;;;17.60;9.25;;;;;;;26.81;36.90;100442.94;1785985;79;21227;-54
2021/08/25 09:13:13;;;;;;;15.60;7.37;;;;;;;26.87;37.20;100439.84;1762280;80;21730;-54
2021/08/25 09:16:21;;;;;;;10.82;6.17;;;;;;;26.99;36.68;100438.98;1774636;78;21374;-53
2021/08/25 09:19:29;;;;;;;11.70;6.25;;;;;;;27.06;36.80;100437.30;1731502;80;21317;-53
2021/08/25 09:22:35;;;;;;;12.40;7.08;;;;;;;27.11;36.66;100437.30;1740151;80;21189;-52
2021/08/25 09:25:40;;;;;;;13.03;7.25;;;;;;;27.15;36.63;100423.80;1736713;82;21304;-53
2021/08/25 09:28:46;;;;;;;9.75;6.55;;;;;;;27.24;36.68;100423.49;1728629;81;21215;-53
2021/08/25 09:31:53;;;;;;;9.10;6.42;;;;;;;27.32;36.64;100417.91;1720449;82;21647;-53
2021/08/25 09:35:05;;;;;;;10.75;6.70;;;;;;;27.39;36.74;100413.66;1714412;82;21251;-52
2021/08/25 09:38:11;;;;;;;11.53;7.30;;;;;;;27.47;36.33;100413.08;1710130;81;21216;-52
2021/08/25 09:41:18;;;;;;;11.05;7.40;;;;;;;27.57;36.66;100409.39;1743936;81;21185;-52
2021/08/25 09:44:24;;;;;;;9.73;7.00;;;;;;;27.61;36.14;100404.31;1759389;79;21205;-53
2021/08/25 09:47:51;;;;;;;10.95;6.95;;;;;;;27.66;35.83;100397.27;1748423;81;21169;-52
2021/08/25 09:51:01;;;;;;;17.05;8.43;;;;;;;27.74;35.55;100405.66;1770190;79;21946;-53
2021/08/25 09:54:15;;;;;;;11.30;7.45;;;;;;;27.84;35.67;100400.82;1804946;79;21700;-52
2021/08/25 09:57:23;;;;;;;10.20;7.00;;;;;;;27.99;35.62;100403.34;1777052;80;21856;-53
2021/08/25 10:00:29;;;;;;;11.12;7.03;;;;;;;28.12;35.11;100390.02;1782803;79;21296;-53
2021/08/25 10:03:35;;;;;;;9.88;6.87;;;;;;;28.22;34.55;100397.00;1786806;79;21362;-53
2021/08/25 10:06:44;;;;;;;12.37;6.72;;;;;;;28.29;34.54;100386.27;1802769;79;21696;-53
2021/08/25 10:09:49;;;;;;;10.65;6.65;;;;;;;28.38;34.29;100385.91;1775567;80;21896;-51
2021/08/25 10:12:56;;;;;;;11.85;6.72;;;;;;;28.50;33.85;100384.44;1758898;79;21252;-51
2021/08/25 10:16:01;;;;;;;11.33;6.35;;;;;;;28.66;33.96;100372.47;1741575;80;21190;-50
2021/08/25 10:19:47;;;;;;;8.88;6.10;;;;;;;28.82;33.62;100374.88;1770880;80;21208;-52
2021/08/25 10:23:00;;;;;;;13.32;6.40;;;;;;;28.95;33.31;100373.34;1810139;79;21176;-52
2021/08/25 10:26:16;;;;;;;8.25;5.55;;;;;;;29.13;33.13;100373.45;1736208;82;21879;-51
2021/08/25 10:29:22;;;;;;;12.07;6.42;;;;;;;29.29;33.04;100364.25;1774835;79;21200;-51
2021/08/25 10:32:29;;;;;;;9.10;5.45;;;;;;;29.49;32.03;100364.03;1802936;79;21228;-51
2021/08/25 10:35:44;;;;;;;7.35;5.58;;;;;;;29.64;32.10;100373.74;1769042;79;21730;-54
2021/08/25 10:38:49;;;;;;;8.23;5.80;;;;;;;29.74;31.48;100369.39;1768930;79;21213;-55
2021/08/25 10:41:56;;;;;;;8.68;5.75;;;;;;;29.77;31.20;100365.95;1736173;80;21342;-55
2021/08/25 10:45:00;;;;;;;8.65;5.90;;;;;;;29.79;31.19;100359.45;1706719;82;21378;-55
2021/08/25 10:48:10;;;;;;;12.75;6.28;;;;;;;29.81;31.00;100352.91;1707244;84;21351;-55
2021/08/25 10:51:40;;;;;;;7.42;5.67;;;;;;;29.80;30.91;100347.00;1707177;84;21185;-55
2021/08/25 10:54:49;;;;;;;9.15;6.30;;;;;;;29.80;30.91;100347.00;1707894;82;21359;-55
2021/08/25 10:57:55;;;;;;;11.88;8.35;;;;;;;29.85;31.41;100341.84;1752524;82;21351;-55
2021/08/25 11:01:00;;;;;;;11.08;7.22;;;;;;;29.93;31.43;100354.73;1752601;81;21378;-55
2021/08/25 11:04:29;;;;;;;10.40;6.65;;;;;;;30.03;31.22;100347.50;1749780;80;21422;-55
2021/08/25 11:07:36;;;;;;;12.13;6.90;;;;;;;30.14;31.44;100334.09;1752454;82;21225;-55
2021/08/25 11:10:45;;;;;;;11.00;6.50;;;;;;;30.21;31.47;100331.17;1752442;82;21350;-54
2021/08/25 11:13:49;;;;;;;12.82;6.67;;;;;;;30.29;31.17;100331.89;1733317;81;21212;-55
2021/08/25 11:16:57;;;;;;;8.03;6.28;;;;;;;30.32;31.05;100324.21;1712987;82;21222;-55
2021/08/25 11:20:14;;;;;;;6.95;5.67;;;;;;;30.30;30.84;100325.09;1757710;81;21406;-54
2021/08/25 11:23:19;;;;;;;8.50;5.45;;;;;;;30.29;31.17;100315.51;1777485;79;21737;-53
2021/08/25 11:26:24;;;;;;;7.67;5.90;;;;;;;30.27;31.17;100305.92;1737010;82;21724;-54
2021/08/25 11:29:31;;;;;;;10.55;5.92;;;;;;;30.26;31.23;100318.39;1695975;83;21790;-55
2021/08/25 11:32:39;;;;;;;11.03;7.17;;;;;;;30.19;31.17;100319.30;1695443;84;21257;-54
2021/08/25 11:35:46;;;;;;;15.80;6.67;;;;;;;30.11;31.42;100316.34;1696188;84;21280;-54
2021/08/25 11:38:51;;;;;;;9.15;6.08;;;;;;;30.06;31.26;100314.44;1695746;83;21276;-53
2021/08/25 11:41:57;;;;;;;9.05;5.75;;;;;;;29.98;31.31;100311.45;1705950;81;21229;-52
2021/08/25 11:45:03;;;;;;;10.65;6.28;;;;;;;29.93;31.69;100313.79;1710194;81;21753;-54
2021/08/25 11:48:09;;;;;;;11.00;7.20;;;;;;;29.96;31.48;100307.53;1730564;82;21308;-54
2021/08/25 11:51:14;;;;;;;12.03;7.90;;;;;;;30.08;31.59;100298.02;1712796;83;21183;-54
2021/08/25 11:54:20;;;;;;;13.08;7.53;;;;;;;30.19;31.48;100286.81;1702610;83;21218;-55
2021/08/25 11:57:25;;;;;;;13.70;6.60;;;;;;;30.30;31.46;100294.60;1717824;83;21197;-54
2021/08/25 12:00:46;;;;;;;7.58;5.87;;;;;;;30.38;31.22;100293.91;1711401;82;21359;-54
2021/08/25 12:03:52;;;;;;;13.60;7.20;;;;;;;30.35;31.51;100288.28;1725651;82;21218;-54
2021/08/25 12:06:59;;;;;;;11.65;6.50;;;;;;;30.31;30.87;100282.99;1722784;82;21845;-54
2021/08/25 12:10:07;;;;;;;11.00;6.33;;;;;;;30.24;31.44;100282.53;1718176;81;21241;-55
2021/08/25 12:13:15;;;;;;;9.53;6.10;;;;;;;30.21;31.79;100272.41;1716410;81;21383;-54
2021/08/25 12:16:33;;;;;;;10.08;7.12;;;;;;;30.25;32.47;100275.76;1734759;82;21205;-54
2021/08/25 12:19:39;;;;;;;12.80;7.00;;;;;;;30.31;32.08;100271.69;1726669;82;21218;-55
2021/08/25 12:22:45;;;;;;;11.73;7.12;;;;;;;30.36;32.01;100263.13;1723995;82;21262;-54
2021/08/25 12:25:57;;;;;;;13.00;7.15;;;;;;;30.42;32.21;100259.06;1724574;82;21357;-54
2021/08/25 12:29:04;;;;;;;13.03;6.40;;;;;;;30.41;32.35;100255.95;1725374;82;21353;-55
2021/08/25 12:32:11;;;;;;;9.85;6.85;;;;;;;30.31;32.88;100256.16;1727499;82;21462;-54
2021/08/25 12:35:17;;;;;;;11.30;6.67;;;;;;;30.25;32.75;100246.66;1719421;82;21442;-54
2021/08/25 12:38:24;;;;;;;10.55;7.05;;;;;;;30.22;33.17;100255.75;1736012;82;21371;-55
2021/08/25 12:41:30;;;;;;;12.55;6.95;;;;;;;30.20;33.54;100257.44;1736754;82;21876;-54
2021/08/25 12:44:37;;;;;;;12.45;7.65;;;;;;;30.15;33.29;100254.70;1728400;81;21375;-53
2021/08/25 12:47:44;;;;;;;12.45;6.90;;;;;;;30.08;33.25;100250.00;1736996;82;21382;-54
2021/08/25 12:50:51;;;;;;;15.05;7.25;;;;;;;29.95;33.13;100249.39;1733878;82;21382;-54
2021/08/25 12:53:58;;;;;;;12.90;7.28;;;;;;;29.85;33.89;100255.19;1735796;82;21276;-54
2021/08/25 12:57:06;;;;;;;10.32;7.12;;;;;;;29.82;33.69;100248.74;1733769;82;21201;-54
2021/08/25 13:00:17;;;;;;;10.63;6.90;;;;;;;29.96;33.66;100236.94;1769140;79;21220;-54
2021/08/25 13:03:22;;;;;;;11.60;7.58;;;;;;;29.96;33.66;100236.94;1765732;80;21325;-54
2021/08/25 13:06:30;;;;;;;11.88;6.80;;;;;;;30.03;33.79;100240.19;1767104;80;21896;-54
2021/08/25 13:09:37;;;;;;;15.20;7.33;;;;;;;30.10;33.93;100241.22;1759703;79;21202;-55
2021/08/25 13:12:44;;;;;;;12.73;6.85;;;;;;;30.09;34.05;100238.14;1771417;79;21690;-54
2021/08/25 13:15:52;;;;;;;11.97;7.60;;;;;;;29.98;33.93;100243.13;1767075;80;21573;-54
2021/08/25 13:18:58;;;;;;;11.65;7.37;;;;;;;29.84;34.18;100237.14;1753192;80;21374;-55
2021/08/25 13:22:03;;;;;;;11.30;7.15;;;;;;;29.67;34.42;100236.25;1737251;82;21339;-55
2021/08/25 13:25:09;;;;;;;11.70;7.53;;;;;;;29.55;35.02;100236.41;1738401;81;21352;-55
2021/08/25 13:28:15;;;;;;;10.93;8.20;;;;;;;29.42;35.44;100239.41;1762605;81;21352;-55
2021/08/25 13:31:21;;;;;;;14.15;7.58;;;;;;;29.31;35.54;100231.38;1768893;80;21864;-55
2021/08/25 13:34:26;;;;;;;10.50;7.12;;;;;;;29.21;35.41;100235.17;1761143;79;21336;-54
2021/08/25 13:37:32;;;;;;;9.58;6.80;;;;;;;29.14;35.41;100234.72;1759336;79;21192;-55
2021/08/25 13:40:38;;;;;;;12.43;6.92;;;;;;;29.09;35.39;100238.45;1747685;81;21340;-55
2021/08/25 13:43:42;;;;;;;13.25;7.80;;;;;;;29.09;35.62;100235.62;1798582;78;21173;-54
2021/08/25 13:46:48;;;;;;;12.73;8.40;;;;;;;29.11;35.74;100236.14;1801575;79;21315;-55
2021/08/25 13:49:53;;;;;;;11.35;7.58;;;;;;;29.14;35.83;100227.67;1796895;78;21235;-55
2021/08/25 13:53:00;;;;;;;13.53;7.25;;;;;;;29.12;35.71;100229.38;1774956;79;21725;-55
2021/08/25 13:56:07;;;;;;;12.58;7.90;;;;;;;29.08;35.80;100224.65;1771716;79;21211;-53
2021/08/25 13:59:12;;;;;;;14.33;8.28;;;;;;;29.01;35.62;100222.72;1765404;81;21243;-55
2021/08/25 14:02:18;;;;;;;12.40;7.47;;;;;;;28.95;35.72;100224.78;1762854;80;21156;-55
2021/08/25 14:05:27;;;;;;;12.63;7.53;;;;;;;28.89;36.10;100215.27;1768657;81;21726;-54
2021/08/25 14:08:32;;;;;;;11.88;7.17;;;;;;;28.85;36.19;100212.77;1761677;81;21261;-54
2021/08/25 14:11:39;;;;;;;15.63;7.08;;;;;;;28.81;36.45;100207.47;1762515;81;21625;-53
2021/08/25 14:14:44;;;;;;;10.38;6.70;;;;;;;28.79;36.68;100207.77;1721647;82;21236;-54